Time;durP1;ratioP1;P1;durP2;ratioP2;P2;SDS_P1;SDS_P2;PMS_P1;PMS_P2;Temp;Humidity;BMP_temperature;BMP_pressure;BME280_temperature;BME280_humidity;BME280_pressure;Samples;Min_cycle;Max_cycle;Signal;HPM_P1;HPM_P2
2021/05/08 00:02:06;;;;;;;9.10;6.70;;;;;;;7.77;35.09;101468.78;3530634;40;20058;-78
2021/05/08 00:04:33;;;;;;;8.38;5.68;;;;;;;7.72;35.12;101465.50;3529563;40;20476;-79
2021/05/08 00:07:02;;;;;;;8.73;5.60;;;;;;;7.67;35.11;101468.50;3537929;40;20063;-78
2021/05/08 00:09:31;;;;;;;7.05;5.65;;;;;;;7.64;35.00;101460.56;3529664;40;20428;-82
2021/05/08 00:11:58;;;;;;;8.57;5.93;;;;;;;7.58;35.08;101460.91;3530173;40;20042;-78
2021/05/08 00:14:26;;;;;;;8.00;6.13;;;;;;;7.54;35.54;101456.66;3530464;40;20377;-78
2021/05/08 00:16:54;;;;;;;9.27;6.53;;;;;;;7.51;35.63;101462.28;3537328;40;20041;-77
2021/05/08 00:19:23;;;;;;;8.35;6.30;;;;;;;7.46;35.17;101461.72;3540279;40;20031;-78
2021/05/08 00:21:51;;;;;;;8.57;5.97;;;;;;;7.42;35.57;101458.31;3530531;40;20381;-79
2021/05/08 00:24:18;;;;;;;8.13;6.00;;;;;;;7.38;35.42;101461.34;3531419;40;20417;-77
2021/05/08 00:26:46;;;;;;;8.77;6.35;;;;;;;7.34;35.88;101454.31;3530984;40;20298;-77
2021/05/08 00:29:14;;;;;;;8.38;5.85;;;;;;;7.28;35.83;101455.59;3522279;40;20043;-79
2021/05/08 00:31:41;;;;;;;7.70;5.88;;;;;;;7.24;35.76;101464.91;3529991;40;20377;-80
2021/05/08 00:34:08;;;;;;;9.20;5.97;;;;;;;7.20;35.78;101459.78;3538996;40;20122;-79
2021/05/08 00:36:36;;;;;;;7.43;5.22;;;;;;;7.17;35.87;101451.78;3531750;40;20043;-79
2021/05/08 00:39:04;;;;;;;7.13;5.65;;;;;;;7.15;36.09;101442.88;3522799;40;20141;-76
2021/05/08 00:41:33;;;;;;;7.20;6.07;;;;;;;7.10;36.03;101441.28;3538430;40;20071;-79
2021/05/08 00:44:02;;;;;;;7.18;5.85;;;;;;;7.09;35.98;101442.25;3544717;40;20150;-79
2021/05/08 00:46:31;;;;;;;7.38;6.30;;;;;;;7.08;36.08;101451.38;3526416;40;20038;-78
2021/05/08 00:48:59;;;;;;;7.82;6.45;;;;;;;7.04;36.13;101447.13;3535054;40;20084;-79
2021/05/08 00:51:27;;;;;;;8.88;6.57;;;;;;;7.01;35.97;101443.69;3530721;40;20035;-78
2021/05/08 00:53:54;;;;;;;9.10;6.40;;;;;;;7.00;36.24;101441.91;3530595;40;20061;-79
2021/05/08 00:56:23;;;;;;;7.82;6.00;;;;;;;6.97;36.20;101443.00;3530446;40;20047;-79
2021/05/08 00:58:51;;;;;;;8.15;6.90;;;;;;;6.94;36.29;101435.03;3522770;40;20039;-79
2021/05/08 01:01:20;;;;;;;8.43;6.45;;;;;;;6.94;36.27;101440.47;3530697;40;20126;-79
2021/05/08 01:03:49;;;;;;;9.13;6.43;;;;;;;6.90;36.39;101430.75;3530720;40;20035;-79
2021/05/08 01:06:18;;;;;;;8.82;6.82;;;;;;;6.88;36.51;101429.97;3538832;40;20098;-78
2021/05/08 01:08:45;;;;;;;9.00;6.40;;;;;;;6.85;36.34;101427.44;3540143;40;20038;-78
2021/05/08 01:11:13;;;;;;;8.32;6.90;;;;;;;6.83;36.68;101421.22;3535004;40;20028;-79
2021/05/08 01:13:40;;;;;;;8.48;6.70;;;;;;;6.81;36.47;101436.78;3534406;40;20413;-78
2021/05/08 01:16:08;;;;;;;7.93;6.35;;;;;;;6.80;36.80;101431.41;3532497;40;20117;-78
2021/05/08 01:18:40;;;;;;;9.45;6.82;;;;;;;6.78;36.67;101426.06;3541680;40;20035;-79
2021/05/08 01:21:14;;;;;;;8.68;6.80;;;;;;;6.77;37.26;101426.16;3522517;40;20036;-78
2021/05/08 01:23:44;;;;;;;9.48;6.25;;;;;;;6.72;36.61;101438.22;3548405;40;20035;-79
2021/05/08 01:26:13;;;;;;;7.88;6.25;;;;;;;6.71;36.87;101439.16;3540937;40;20039;-79
2021/05/08 01:28:41;;;;;;;7.93;6.03;;;;;;;6.71;36.58;101430.13;3538690;40;20137;-78
2021/05/08 01:31:09;;;;;;;8.10;6.82;;;;;;;6.70;36.69;101433.81;3522463;40;20071;-79
2021/05/08 01:33:36;;;;;;;7.80;6.13;;;;;;;6.68;37.06;101428.47;3530545;40;20038;-79
2021/05/08 01:36:04;;;;;;;8.85;6.55;;;;;;;6.68;36.62;101430.31;3530247;40;20035;-79
2021/05/08 01:38:33;;;;;;;9.23;6.85;;;;;;;6.68;37.16;101424.88;3530447;40;20071;-79
2021/05/08 01:41:03;;;;;;;9.50;6.88;;;;;;;6.64;37.07;101421.50;3531434;40;20054;-79
2021/05/08 01:43:31;;;;;;;8.60;6.18;;;;;;;6.63;37.09;101418.84;3537407;40;20067;-78
2021/05/08 01:45:58;;;;;;;9.45;6.70;;;;;;;6.61;36.95;101418.06;3524577;40;20047;-78
2021/05/08 01:48:28;;;;;;;8.98;6.53;;;;;;;6.60;37.31;101422.63;3542887;40;20038;-78
2021/05/08 01:50:58;;;;;;;9.53;6.77;;;;;;;6.55;36.72;101407.56;3521821;40;20031;-78
2021/05/08 01:53:27;;;;;;;8.13;6.63;;;;;;;6.55;37.07;101408.44;3525269;40;20098;-78
2021/05/08 01:55:55;;;;;;;9.18;6.85;;;;;;;6.54;37.18;101409.41;3530332;40;20388;-78
2021/05/08 01:58:26;;;;;;;8.75;6.93;;;;;;;6.52;37.08;101411.34;3534035;40;20054;-78
2021/05/08 02:00:55;;;;;;;8.18;6.55;;;;;;;6.51;36.91;101408.72;3539960;40;20039;-78
2021/05/08 02:03:27;;;;;;;8.45;6.45;;;;;;;6.47;37.10;101402.59;3521162;40;20290;-78
2021/05/08 02:05:55;;;;;;;8.77;6.57;;;;;;;6.49;36.95;101405.25;3512165;40;20035;-78
2021/05/08 02:08:37;;;;;;;8.80;6.32;;;;;;;6.45;37.02;101395.50;3535804;40;20118;-79
2021/05/08 02:11:09;;;;;;;7.60;6.22;;;;;;;6.44;37.29;101388.31;3521898;40;20043;-78
2021/05/08 02:13:39;;;;;;;9.02;6.65;;;;;;;6.40;37.23;101393.09;3534689;40;20035;-78
2021/05/08 02:16:08;;;;;;;9.02;6.68;;;;;;;6.39;37.39;101387.72;3520917;40;20321;-78
2021/05/08 02:18:35;;;;;;;8.88;6.63;;;;;;;6.34;37.20;101386.16;3523742;40;20078;-78
2021/05/08 02:21:03;;;;;;;8.60;6.70;;;;;;;6.32;37.11;101382.69;3527996;40;20055;-78
2021/05/08 02:23:30;;;;;;;8.48;6.60;;;;;;;6.30;36.92;101384.59;3529551;40;20039;-79
2021/05/08 02:26:01;;;;;;;7.85;6.38;;;;;;;6.27;37.48;101383.91;3529856;40;20079;-78
2021/05/08 02:28:30;;;;;;;8.68;6.75;;;;;;;6.26;37.06;101376.72;3530605;40;20043;-79
2021/05/08 02:30:58;;;;;;;9.32;6.70;;;;;;;6.23;37.35;101368.78;3529821;40;20043;-76
2021/05/08 02:33:30;;;;;;;8.63;6.47;;;;;;;6.19;37.40;101364.47;3523138;40;20054;-77
2021/05/08 02:35:58;;;;;;;8.40;6.68;;;;;;;6.18;37.21;101360.88;3530001;40;20274;-77
2021/05/08 02:38:26;;;;;;;9.25;7.20;;;;;;;6.16;37.48;101357.41;3530199;40;20038;-77
2021/05/08 02:40:54;;;;;;;9.82;6.65;;;;;;;6.14;37.24;101353.91;3530900;40;20053;-78
2021/05/08 02:43:21;;;;;;;8.40;7.10;;;;;;;6.12;37.35;101352.22;3529564;40;20048;-77
2021/05/08 02:45:56;;;;;;;8.77;6.40;;;;;;;6.12;37.41;101360.38;3530992;40;20039;-77
2021/05/08 02:48:24;;;;;;;9.48;6.65;;;;;;;6.09;37.34;101361.41;3543657;40;20067;-77
2021/05/08 02:50:55;;;;;;;9.75;7.07;;;;;;;6.07;37.69;101357.94;3528796;40;20057;-78
2021/05/08 02:53:23;;;;;;;8.20;6.38;;;;;;;6.06;37.31;101360.75;3529702;40;20038;-77
2021/05/08 02:55:50;;;;;;;8.85;6.65;;;;;;;6.04;37.67;101355.41;3531657;40;20036;-77
2021/05/08 02:58:21;;;;;;;8.50;6.72;;;;;;;6.04;37.46;101351.81;3532274;40;20126;-76
2021/05/08 03:00:51;;;;;;;10.20;6.63;;;;;;;6.02;37.59;101346.47;3522270;40;20040;-77
2021/05/08 03:03:20;;;;;;;9.90;7.15;;;;;;;6.03;37.48;101345.50;3530823;40;20067;-77
2021/05/08 03:05:50;;;;;;;9.98;7.50;;;;;;;5.99;37.35;101346.66;3529201;40;20043;-77
2021/05/08 03:08:21;;;;;;;8.52;6.57;;;;;;;5.98;37.75;101351.22;3529008;40;20051;-76
2021/05/08 03:10:52;;;;;;;9.15;6.45;;;;;;;5.97;37.77;101351.31;3521268;40;20038;-77
2021/05/08 03:13:23;;;;;;;7.55;5.97;;;;;;;5.96;37.73;101355.84;3529760;40;20110;-77
2021/05/08 03:15:51;;;;;;;7.78;6.28;;;;;;;5.96;37.83;101344.13;3527945;40;20039;-77
2021/05/08 03:18:19;;;;;;;7.47;6.40;;;;;;;5.95;37.65;101345.97;3539546;40;20032;-77
2021/05/08 03:20:47;;;;;;;7.55;5.93;;;;;;;5.94;37.30;101348.75;3519592;40;21647;-76
2021/05/08 03:23:14;;;;;;;7.90;6.18;;;;;;;5.94;37.64;101340.63;3528461;40;20049;-77
2021/05/08 03:25:44;;;;;;;8.40;5.97;;;;;;;5.93;37.71;101331.59;3529042;40;20036;-77
2021/05/08 03:28:12;;;;;;;8.60;6.53;;;;;;;5.93;37.64;101333.44;3529668;40;20048;-77
2021/05/08 03:30:41;;;;;;;8.43;6.15;;;;;;;5.92;37.63;101337.97;3531078;40;20075;-77
2021/05/08 03:33:08;;;;;;;7.57;6.22;;;;;;;5.91;37.49;101333.56;3535630;40;20046;-76
2021/05/08 03:35:38;;;;;;;8.18;6.45;;;;;;;5.92;37.66;101329.00;3532906;40;20031;-77
2021/05/08 03:38:07;;;;;;;8.25;6.05;;;;;;;5.90;37.66;101320.94;3525141;40;20042;-76
2021/05/08 03:40:34;;;;;;;8.10;6.45;;;;;;;5.89;37.77;101329.16;3528684;40;20124;-76
2021/05/08 03:43:03;;;;;;;10.27;6.95;;;;;;;5.88;37.83;101333.72;3525126;40;20035;-76
2021/05/08 03:45:32;;;;;;;8.35;5.93;;;;;;;5.87;37.89;101321.09;3521775;40;20351;-76
2021/05/08 03:48:04;;;;;;;7.53;5.95;;;;;;;5.89;37.75;101323.72;3534394;40;20041;-76
2021/05/08 03:50:32;;;;;;;10.75;7.15;;;;;;;5.89;37.54;101315.59;3530922;40;20055;-76
2021/05/08 03:53:00;;;;;;;8.77;6.28;;;;;;;5.89;38.10;101319.19;3534187;40;20047;-77
2021/05/08 03:55:29;;;;;;;8.48;5.93;;;;;;;5.89;37.71;101324.63;3528523;40;20058;-77
2021/05/08 03:57:56;;;;;;;7.75;5.57;;;;;;;5.91;37.73;101321.81;3532268;40;20059;-76
2021/05/08 04:00:23;;;;;;;7.75;5.82;;;;;;;5.90;37.97;101312.78;3533724;40;20126;-76
2021/05/08 04:02:51;;;;;;;9.50;6.35;;;;;;;5.91;37.78;101317.25;3529253;40;20118;-76
2021/05/08 04:05:18;;;;;;;8.88;6.35;;;;;;;5.91;37.71;101317.25;3533567;40;20418;-77
2021/05/08 04:07:45;;;;;;;9.40;6.60;;;;;;;5.93;37.99;101311.72;3531843;40;20035;-77
2021/05/08 04:10:14;;;;;;;9.35;6.45;;;;;;;5.93;38.03;101325.28;3530031;40;20042;-77
2021/05/08 04:12:44;;;;;;;8.75;6.95;;;;;;;5.92;37.88;101327.13;3533671;40;20312;-76
2021/05/08 04:15:12;;;;;;;9.10;6.80;;;;;;;5.91;37.66;101322.69;3536173;40;20051;-76
2021/05/08 04:17:41;;;;;;;8.38;5.97;;;;;;;5.91;37.96;101324.53;3532740;40;20032;-78
2021/05/08 04:20:12;;;;;;;8.52;6.05;;;;;;;5.91;37.65;101319.97;3536200;40;20051;-77
2021/05/08 04:23:00;;;;;;;9.40;7.05;;;;;;;5.89;37.98;101329.16;3538777;40;20035;-76
2021/05/08 04:25:38;;;;;;;9.02;6.63;;;;;;;5.90;37.80;101330.91;3534322;40;20043;-76
2021/05/08 04:28:25;;;;;;;9.18;6.35;;;;;;;5.89;38.03;101323.72;3533154;40;20054;-76
2021/05/08 04:31:16;;;;;;;7.75;6.13;;;;;;;5.90;38.23;101320.94;3530410;40;20070;-76
2021/05/08 04:34:03;;;;;;;8.07;6.15;;;;;;;5.90;38.01;101320.06;3530121;40;20031;-77
2021/05/08 04:36:37;;;;;;;9.23;6.50;;;;;;;5.91;37.86;101311.81;3541255;40;20353;-77
2021/05/08 04:39:06;;;;;;;9.70;6.88;;;;;;;5.93;37.85;101315.31;3530639;40;20035;-76
2021/05/08 04:41:53;;;;;;;8.55;6.63;;;;;;;5.96;38.08;101314.25;3534143;40;20097;-76
2021/05/08 04:44:20;;;;;;;8.90;6.43;;;;;;;5.97;37.97;101319.59;3537687;40;20266;-76
2021/05/08 04:46:50;;;;;;;8.75;6.68;;;;;;;6.00;37.91;101315.84;3533009;40;20119;-77
2021/05/08 04:49:19;;;;;;;7.88;6.05;;;;;;;6.02;37.94;101311.16;3539332;40;20051;-76
2021/05/08 04:52:07;;;;;;;8.80;6.20;;;;;;;6.06;38.21;101317.28;3529594;40;20062;-77
2021/05/08 04:54:41;;;;;;;10.63;6.60;;;;;;;6.09;37.84;101327.97;3533517;40;20083;-76
2021/05/08 04:57:33;;;;;;;10.00;6.70;;;;;;;6.11;38.00;101332.34;3532463;40;20039;-76
2021/05/08 05:00:04;;;;;;;8.65;6.45;;;;;;;6.16;38.01;101332.94;3530463;40;20040;-76
2021/05/08 05:02:34;;;;;;;8.75;6.60;;;;;;;6.19;38.26;101338.19;3528666;40;20047;-76
2021/05/08 05:05:21;;;;;;;7.40;5.47;;;;;;;6.25;38.38;101321.50;3535011;40;20058;-76
2021/05/08 05:08:08;;;;;;;8.15;5.82;;;;;;;6.32;38.33;101324.75;3528525;40;20035;-76
2021/05/08 05:10:56;;;;;;;7.07;5.55;;;;;;;6.43;38.60;101330.38;3532344;40;20368;-76
2021/05/08 05:13:28;;;;;;;8.30;6.43;;;;;;;6.58;38.83;101320.41;3532403;40;20031;-75
2021/05/08 05:16:15;;;;;;;8.52;5.85;;;;;;;6.79;39.55;101313.63;3528840;40;20063;-76
2021/05/08 05:18:53;;;;;;;8.68;5.93;;;;;;;7.17;40.53;101321.19;3526645;40;20055;-76
2021/05/08 05:21:40;;;;;;;7.75;5.30;;;;;;;7.71;41.23;101317.56;3531286;40;20042;-76
2021/05/08 05:24:23;;;;;;;8.43;5.30;;;;;;;8.38;41.38;101310.22;3523074;40;20060;-76
2021/05/08 05:27:10;;;;;;;7.13;5.38;;;;;;;9.12;40.84;101312.19;3530655;40;20039;-77
2021/05/08 05:29:59;;;;;;;6.80;4.97;;;;;;;9.87;39.71;101314.81;3526941;40;20409;-77
2021/05/08 05:32:33;;;;;;;6.07;5.10;;;;;;;10.44;38.59;101306.69;3527116;40;20304;-77
2021/05/08 05:35:03;;;;;;;6.95;4.75;;;;;;;10.89;37.16;101315.84;3524707;40;20057;-77
2021/05/08 05:37:57;;;;;;;5.40;3.80;;;;;;;11.22;35.99;101312.22;3534873;40;20467;-77
2021/05/08 05:40:25;;;;;;;5.13;4.15;;;;;;;11.43;35.41;101312.34;3528989;40;20031;-77
2021/05/08 05:43:13;;;;;;;6.90;4.70;;;;;;;11.56;34.33;101308.44;3528221;40;20063;-77
2021/05/08 05:46:01;;;;;;;5.45;4.22;;;;;;;11.64;33.90;101314.16;3534940;40;20353;-78
2021/05/08 05:48:48;;;;;;;5.82;4.65;;;;;;;11.66;33.67;101309.44;3530110;40;20039;-77
2021/05/08 05:51:21;;;;;;;5.22;4.18;;;;;;;11.71;33.53;101321.88;3531245;40;20054;-77
2021/05/08 05:54:08;;;;;;;4.60;3.63;;;;;;;11.69;33.26;101316.50;3539918;40;20042;-77
2021/05/08 05:56:55;;;;;;;4.75;3.85;;;;;;;11.68;33.26;101319.41;3533719;40;20051;-77
2021/05/08 05:59:33;;;;;;;5.70;3.75;;;;;;;11.70;32.93;101323.72;3528065;40;20048;-78
2021/05/08 06:02:21;;;;;;;6.63;3.95;;;;;;;11.72;33.00;101315.38;3529550;40;20054;-77
2021/05/08 06:04:59;;;;;;;5.47;4.18;;;;;;;11.73;32.89;101319.88;3531246;40;20426;-77
2021/05/08 06:07:36;;;;;;;4.95;3.75;;;;;;;11.77;32.72;101316.72;3528839;40;20380;-77
2021/05/08 06:10:07;;;;;;;4.18;3.60;;;;;;;11.86;33.15;101315.09;3534243;40;20047;-78
2021/05/08 06:12:54;;;;;;;4.18;3.17;;;;;;;11.95;33.26;101312.47;3537465;40;20432;-77
2021/05/08 06:15:37;;;;;;;5.25;3.42;;;;;;;12.13;33.44;101315.50;3527608;40;20066;-77
2021/05/08 06:18:25;;;;;;;5.97;3.70;;;;;;;12.40;33.39;101315.00;3535456;40;20653;-78
2021/05/08 06:21:12;;;;;;;5.18;3.78;;;;;;;12.68;33.33;101317.06;3529239;40;20387;-77
2021/05/08 06:23:59;;;;;;;5.03;3.88;;;;;;;13.01;33.26;101313.22;3527682;40;20067;-78
2021/05/08 06:26:47;;;;;;;5.32;3.47;;;;;;;13.31;32.37;101317.88;3534216;40;20067;-78
2021/05/08 06:29:35;;;;;;;4.38;3.25;;;;;;;13.51;31.68;101316.91;3528942;40;20329;-78
2021/05/08 06:32:06;;;;;;;;;;;;;;;13.35;32.21;101322.06;3532876;40;20380;-77
2021/05/08 06:34:54;;;;;;;4.78;3.10;;;;;;;13.71;31.37;101326.06;3522835;40;19939;-77
2021/05/08 06:37:36;;;;;;;5.10;3.33;;;;;;;13.79;30.92;101322.63;3529965;40;20123;-77
2021/05/08 06:40:23;;;;;;;4.45;3.08;;;;;;;13.84;30.34;101321.16;3527747;40;20042;-78
2021/05/08 06:43:10;;;;;;;4.55;3.17;;;;;;;13.83;30.64;101313.91;3530058;40;20023;-78
2021/05/08 06:45:57;;;;;;;4.25;3.10;;;;;;;13.82;29.98;101317.72;3533957;40;20055;-77
2021/05/08 06:48:44;;;;;;;4.30;3.28;;;;;;;13.80;30.23;101307.84;3529954;40;20058;-77
2021/05/08 06:51:29;;;;;;;5.30;3.40;;;;;;;13.77;30.25;101306.25;3524882;40;20051;-78
2021/05/08 06:54:07;;;;;;;5.82;3.65;;;;;;;13.79;30.26;101304.25;3518060;40;20055;-77
2021/05/08 06:56:41;;;;;;;5.65;3.38;;;;;;;13.77;30.41;101317.25;3533685;40;20129;-77
2021/05/08 06:59:28;;;;;;;4.28;3.03;;;;;;;13.73;29.97;101302.06;3533691;40;20050;-78
2021/05/08 07:02:08;;;;;;;5.50;3.47;;;;;;;13.72;29.98;101303.06;3524659;40;20091;-78
2021/05/08 07:04:56;;;;;;;4.28;3.05;;;;;;;13.67;29.72;101296.25;3529231;40;20033;-78
2021/05/08 07:07:40;;;;;;;4.30;3.00;;;;;;;13.62;29.08;101299.44;3520625;40;20055;-78
2021/05/08 07:10:12;;;;;;;5.60;3.03;;;;;;;13.53;29.48;101292.03;3526813;40;20067;-76
2021/05/08 07:12:50;;;;;;;4.32;3.17;;;;;;;13.48;29.43;101291.59;3526113;40;20055;-76
2021/05/08 07:15:19;;;;;;;4.47;2.95;;;;;;;13.41;29.39;101283.06;3534493;40;20055;-76
2021/05/08 07:17:59;;;;;;;4.55;3.15;;;;;;;13.36;28.98;101287.19;3532272;40;20408;-76
2021/05/08 07:20:27;;;;;;;4.68;2.88;;;;;;;13.27;29.28;101288.91;3534226;40;20061;-76
2021/05/08 07:22:59;;;;;;;4.45;2.88;;;;;;;13.22;28.94;101284.84;3521348;40;20114;-75
2021/05/08 07:25:28;;;;;;;4.50;2.80;;;;;;;13.13;29.47;101278.31;3531620;40;20031;-75
2021/05/08 07:28:19;;;;;;;5.72;3.30;;;;;;;13.03;29.37;101274.66;3528415;40;20050;-77
2021/05/08 07:31:07;;;;;;;4.70;2.65;;;;;;;12.92;28.97;101269.28;3530399;40;20057;-76
2021/05/08 07:33:54;;;;;;;4.38;2.97;;;;;;;12.82;29.47;101274.69;3534233;40;20058;-76
2021/05/08 07:36:41;;;;;;;4.10;3.03;;;;;;;12.74;29.63;101272.63;3532124;40;20055;-76
2021/05/08 07:39:29;;;;;;;4.10;2.72;;;;;;;12.67;29.55;101268.69;3537463;40;20047;-77
2021/05/08 07:42:16;;;;;;;3.72;2.75;;;;;;;12.59;29.78;101262.16;3535560;40;20326;-77
2021/05/08 07:45:02;;;;;;;6.13;3.20;;;;;;;12.52;29.78;101260.91;3535427;40;20047;-77
2021/05/08 07:47:49;;;;;;;4.95;3.25;;;;;;;12.47;29.73;101265.97;3535126;40;20035;-77
2021/05/08 07:50:36;;;;;;;4.68;3.42;;;;;;;12.41;30.42;101257.28;3533871;40;20043;-77
2021/05/08 07:53:23;;;;;;;5.35;3.63;;;;;;;12.38;30.16;101259.41;3529080;40;20045;-77
2021/05/08 07:55:53;;;;;;;4.93;3.10;;;;;;;12.37;30.20;101253.03;3530092;40;20366;-77
2021/05/08 07:58:40;;;;;;;5.43;3.13;;;;;;;12.34;30.20;101249.72;3528559;40;20047;-77
2021/05/08 08:01:30;;;;;;;5.18;3.00;;;;;;;12.36;30.10;101250.44;3523110;40;20335;-78
2021/05/08 08:04:17;;;;;;;5.43;3.70;;;;;;;12.34;30.33;101246.97;3530220;40;20061;-78
2021/05/08 08:07:04;;;;;;;4.30;2.70;;;;;;;12.36;30.32;101247.69;3529804;40;20106;-77
2021/05/08 08:09:52;;;;;;;5.15;3.10;;;;;;;12.38;30.34;101249.31;3536441;40;20050;-77
2021/05/08 08:12:40;;;;;;;5.20;2.80;;;;;;;12.45;30.64;101237.78;3534627;40;20114;-76
2021/05/08 08:15:28;;;;;;;6.15;2.67;;;;;;;12.48;30.81;101243.00;3531589;40;20055;-76
2021/05/08 08:18:15;;;;;;;4.72;2.85;;;;;;;12.54;30.32;101242.44;3531093;40;20023;-76
2021/05/08 08:21:04;;;;;;;5.43;2.80;;;;;;;12.57;30.41;101239.44;3526612;40;20059;-77
2021/05/08 08:23:51;;;;;;;5.15;2.53;;;;;;;12.62;30.36;101239.91;3535026;40;20071;-77
2021/05/08 08:26:39;;;;;;;5.20;2.95;;;;;;;12.68;30.29;101244.81;3529147;40;20039;-76
2021/05/08 08:29:28;;;;;;;5.85;2.65;;;;;;;12.74;30.24;101244.31;3539728;40;20348;-76
2021/05/08 08:32:16;;;;;;;4.03;2.47;;;;;;;12.78;29.99;101238.38;3527810;40;20092;-77
2021/05/08 08:35:04;;;;;;;4.63;2.83;;;;;;;12.83;30.09;101226.13;3529672;40;20051;-75
2021/05/08 08:37:51;;;;;;;4.63;2.63;;;;;;;12.87;30.39;101227.59;3528402;40;20055;-75
2021/05/08 08:40:38;;;;;;;4.80;2.45;;;;;;;12.93;30.26;101227.94;3532442;40;20059;-77
2021/05/08 08:43:25;;;;;;;4.32;2.78;;;;;;;12.98;30.25;101213.78;3531417;40;20096;-75
2021/05/08 08:46:15;;;;;;;6.57;3.00;;;;;;;13.03;30.11;101206.88;3535691;40;20059;-76
2021/05/08 08:49:05;;;;;;;4.07;2.47;;;;;;;13.11;29.78;101209.78;3532238;40;20059;-75
2021/05/08 08:51:52;;;;;;;4.70;2.13;;;;;;;13.15;30.27;101203.00;3539268;40;20038;-76
2021/05/08 08:54:39;;;;;;;4.18;2.45;;;;;;;13.22;29.88;101196.94;3530959;40;20058;-76
2021/05/08 08:57:29;;;;;;;4.45;2.40;;;;;;;13.29;30.07;101195.38;3525538;40;20051;-76
2021/05/08 09:00:17;;;;;;;4.05;2.67;;;;;;;13.36;29.97;101197.41;3536604;40;20054;-78
2021/05/08 09:03:06;;;;;;;3.47;2.15;;;;;;;13.41;30.01;101195.13;3535958;40;20055;-77
2021/05/08 09:05:53;;;;;;;4.13;2.30;;;;;;;13.48;29.85;101187.16;3531683;40;20048;-77
2021/05/08 09:08:40;;;;;;;5.85;2.50;;;;;;;13.52;30.08;101174.84;3530107;40;20047;-77
2021/05/08 09:11:28;;;;;;;4.22;2.50;;;;;;;13.57;29.64;101163.44;3530160;40;20382;-77
2021/05/08 09:14:17;;;;;;;4.90;2.45;;;;;;;13.64;29.71;101168.22;3530497;40;20053;-77
2021/05/08 09:17:09;;;;;;;4.55;2.30;;;;;;;13.70;29.35;101158.50;3530308;40;20568;-78
2021/05/08 09:19:39;;;;;;;4.27;2.40;;;;;;;13.73;29.37;101158.22;3532177;40;20051;-77
2021/05/08 09:22:23;;;;;;;4.32;2.28;;;;;;;13.82;29.42;101157.34;3525854;40;20298;-77
2021/05/08 09:24:59;;;;;;;4.07;2.20;;;;;;;13.90;29.36;101152.03;3530762;40;20079;-78
2021/05/08 09:27:45;;;;;;;4.28;2.65;;;;;;;13.98;29.38;101141.16;3530221;40;20051;-79
2021/05/08 09:30:15;;;;;;;5.32;2.20;;;;;;;14.05;29.66;101144.16;3530255;40;20051;-78
2021/05/08 09:32:44;;;;;;;6.25;2.47;;;;;;;14.12;29.58;101137.06;3531383;40;20051;-79
2021/05/08 09:35:15;;;;;;;6.07;2.83;;;;;;;14.24;29.56;101144.97;3532786;40;20067;-79
2021/05/08 09:37:43;;;;;;;4.28;2.40;;;;;;;14.32;29.60;101133.25;3532180;40;20375;-78
2021/05/08 09:40:28;;;;;;;4.25;2.40;;;;;;;14.42;28.30;101134.03;3540391;40;20065;-76
2021/05/08 09:42:56;;;;;;;4.35;2.33;;;;;;;14.49;28.93;101124.16;3531804;40;20036;-77
2021/05/08 09:45:25;;;;;;;3.65;2.13;;;;;;;14.58;28.91;101122.38;3531102;40;20035;-78
2021/05/08 09:47:54;;;;;;;4.88;2.30;;;;;;;14.66;28.88;101120.59;3530672;40;20047;-78
2021/05/08 09:50:24;;;;;;;3.58;2.10;;;;;;;14.76;28.15;101111.44;3528705;40;20415;-79
2021/05/08 09:52:55;;;;;;;4.00;2.50;;;;;;;14.85;28.37;101108.66;3529880;40;20416;-79
2021/05/08 09:55:23;;;;;;;4.15;2.20;;;;;;;14.92;28.10;101109.78;3530784;40;20039;-79
2021/05/08 09:58:11;;;;;;;4.68;2.20;;;;;;;15.00;27.92;101100.72;3532323;40;20078;-78
2021/05/08 10:00:39;;;;;;;3.88;2.15;;;;;;;15.07;28.42;101088.06;3518941;40;20035;-78
2021/05/08 10:03:10;;;;;;;4.07;2.13;;;;;;;15.17;28.03;101079.72;3529433;40;20381;-80
2021/05/08 10:05:40;;;;;;;4.18;2.10;;;;;;;15.24;27.66;101072.56;3530764;40;20071;-78
2021/05/08 10:08:09;;;;;;;4.57;2.35;;;;;;;15.27;27.43;101075.88;3531031;40;20058;-77
2021/05/08 10:10:37;;;;;;;4.35;2.10;;;;;;;15.34;27.32;101074.22;3529540;40;20055;-75
2021/05/08 10:13:10;;;;;;;4.47;2.00;;;;;;;15.43;27.09;101072.41;3524883;40;20079;-77
2021/05/08 10:15:38;;;;;;;4.25;1.95;;;;;;;15.46;27.46;101072.09;3535232;40;20065;-75
2021/05/08 10:18:08;;;;;;;4.28;2.13;;;;;;;15.55;27.15;101075.78;3530742;40;20320;-72
2021/05/08 10:20:38;;;;;;;3.78;2.05;;;;;;;15.61;26.69;101072.38;3532864;40;20043;-73
2021/05/08 10:23:08;;;;;;;3.90;1.98;;;;;;;15.67;26.72;101071.75;3526222;40;20062;-73
2021/05/08 10:25:36;;;;;;;4.03;1.85;;;;;;;15.73;26.56;101071.97;3528126;40;20042;-73
2021/05/08 10:28:05;;;;;;;3.88;1.92;;;;;;;15.79;26.87;101063.09;3537746;40;20051;-76
2021/05/08 10:30:35;;;;;;;4.30;2.13;;;;;;;15.88;26.73;101061.25;3534772;40;20104;-77
2021/05/08 10:33:08;;;;;;;4.32;2.20;;;;;;;15.96;25.05;101057.69;3528602;40;20344;-75
2021/05/08 10:35:41;;;;;;;4.03;1.95;;;;;;;16.03;26.13;101059.63;3529137;40;20050;-75
2021/05/08 10:38:19;;;;;;;3.42;2.00;;;;;;;16.09;26.15;101049.81;3529717;40;20348;-75
2021/05/08 10:40:57;;;;;;;4.22;1.90;;;;;;;16.18;26.06;101044.19;3531987;40;20082;-75
2021/05/08 10:43:42;;;;;;;3.30;1.90;;;;;;;16.25;25.91;101049.03;3530824;40;20388;-74
2021/05/08 10:46:10;;;;;;;4.00;1.98;;;;;;;16.29;25.82;101039.41;3530580;40;20051;-73
2021/05/08 10:48:37;;;;;;;3.33;1.75;;;;;;;16.36;26.46;101040.47;3528485;40;20043;-75
2021/05/08 10:51:06;;;;;;;3.28;1.83;;;;;;;16.44;25.75;101046.03;3531276;40;20071;-74
2021/05/08 10:53:40;;;;;;;2.97;1.45;;;;;;;16.53;25.19;101039.53;3526252;40;20571;-75
2021/05/08 10:56:08;;;;;;;2.70;1.45;;;;;;;16.55;25.37;101031.94;3525004;40;20324;-74
2021/05/08 10:58:37;;;;;;;2.83;1.30;;;;;;;16.60;25.26;101034.22;3523261;40;20047;-75
2021/05/08 11:01:09;;;;;;;2.60;1.40;;;;;;;16.66;24.35;101039.03;3531359;40;20061;-74
2021/05/08 11:04:02;;;;;;;3.63;1.50;;;;;;;16.65;24.27;101024.38;3529939;40;20063;-75
2021/05/08 11:06:30;;;;;;;2.60;1.25;;;;;;;16.67;25.21;101029.72;3527539;40;20285;-74
2021/05/08 11:08:59;;;;;;;3.90;1.40;;;;;;;16.73;25.01;101034.56;3531934;40;20094;-74
2021/05/08 11:11:47;;;;;;;2.63;1.20;;;;;;;16.72;23.98;101014.38;3534993;40;20027;-75
2021/05/08 11:14:14;;;;;;;2.90;1.38;;;;;;;;;;3530412;40;20047;-73
2021/05/08 11:17:03;;;;;;;3.25;1.35;;;;;;;16.76;24.34;101013.03;3528155;40;20067;-72
2021/05/08 11:19:31;;;;;;;2.53;1.27;;;;;;;16.74;24.50;101004.03;3530545;40;20043;-72
2021/05/08 11:22:06;;;;;;;3.08;1.40;;;;;;;16.81;23.99;101002.31;3529278;40;20094;-75
2021/05/08 11:24:39;;;;;;;2.35;1.30;;;;;;;16.81;23.70;101002.31;3530823;40;20091;-74
2021/05/08 11:27:24;;;;;;;1.98;1.23;;;;;;;16.82;23.50;100979.19;3520793;40;20059;-72
2021/05/08 11:29:53;;;;;;;3.08;1.27;;;;;;;16.80;24.02;100981.25;3534403;40;20058;-72
2021/05/08 11:32:20;;;;;;;2.17;1.20;;;;;;;16.84;24.31;100990.06;3532657;40;20043;-73
2021/05/08 11:34:48;;;;;;;2.42;1.45;;;;;;;16.86;24.00;100976.94;3533310;40;20087;-75
2021/05/08 11:37:15;;;;;;;3.42;1.40;;;;;;;16.90;23.69;100995.78;3529023;40;20405;-75
2021/05/08 11:39:47;;;;;;;2.33;1.10;;;;;;;16.93;23.65;100976.09;3524855;40;20067;-75
2021/05/08 11:42:16;;;;;;;2.50;1.20;;;;;;;16.93;23.92;100978.00;3527370;40;20405;-75
2021/05/08 11:44:45;;;;;;;1.92;1.00;;;;;;;16.92;23.67;100977.13;3534191;40;20382;-75
2021/05/08 11:47:30;;;;;;;2.22;1.10;;;;;;;16.93;23.33;100976.09;3525722;40;20714;-73
2021/05/08 11:50:02;;;;;;;1.73;0.90;;;;;;;16.91;23.96;100974.53;3528909;40;20056;-75
2021/05/08 11:52:37;;;;;;;1.50;0.90;;;;;;;16.90;23.16;100962.59;3522618;40;20067;-73
2021/05/08 11:55:17;;;;;;;1.95;1.00;;;;;;;16.86;23.53;100964.00;3521804;40;20063;-74
2021/05/08 11:57:50;;;;;;;1.92;1.15;;;;;;;16.83;23.81;100975.38;3530398;40;20039;-76
2021/05/08 12:00:19;;;;;;;2.25;1.10;;;;;;;16.76;24.03;100971.56;3531291;40;20059;-75
2021/05/08 12:03:06;;;;;;;1.85;1.10;;;;;;;;;;3525565;40;20039;-75
2021/05/08 12:05:36;;;;;;;2.78;1.20;;;;;;;16.68;24.48;100977.09;3529050;40;20134;-76
2021/05/08 12:08:06;;;;;;;2.28;0.88;;;;;;;16.61;24.74;100962.22;3522041;40;20075;-76